Terminal Aerodrome Forecast
Issued by NWS Jackson, MS

Home | Current Version | Previous Version | Text Only | Print | Product List | Glossary On
Versions: 1 2 3 4 5 6 7 8 9 10 11 12 13
000
FTUS44 KJAN 212300
TAFGLH
TAF
KGLH 212320Z 2200/2224 12005KT P6SM SCT018 BKN250
     FM220600 16005KT P6SM OVC015
     FM221000 16004KT 4SM BR OVC007
     FM221200 16005KT 2SM BR OVC007
     FM221400 17010KT 6SM BR OVC009
     FM221600 17012KT P6SM OVC012=

USA.gov is the U.S. government's official web portal to all federal, state and local government web resources and services.